sensor_id;sensor_type;location;lat;lon;timestamp;temperature;humidity
5344;DHT22;2694;48.954;8.928;2023-06-14T00:01:55;14.00;98.60
5344;DHT22;2694;48.954;8.928;2023-06-14T00:04:22;13.80;99.30
5344;DHT22;2694;48.954;8.928;2023-06-14T00:06:51;13.70;99.60
5344;DHT22;2694;48.954;8.928;2023-06-14T00:09:19;13.70;99.90
5344;DHT22;2694;48.954;8.928;2023-06-14T00:11:46;13.60;99.90
5344;DHT22;2694;48.954;8.928;2023-06-14T00:14:13;13.60;99.90
5344;DHT22;2694;48.954;8.928;2023-06-14T00:16:40;13.60;99.90
5344;DHT22;2694;48.954;8.928;2023-06-14T00:19:08;13.60;99.90
5344;DHT22;2694;48.954;8.928;2023-06-14T00:21:36;13.50;99.90
5344;DHT22;2694;48.954;8.928;2023-06-14T00:24:04;13.60;99.90
5344;DHT22;2694;48.954;8.928;2023-06-14T00:26:33;13.50;99.90
5344;DHT22;2694;48.954;8.928;2023-06-14T00:29:00;13.50;99.90
5344;DHT22;2694;48.954;8.928;2023-06-14T00:31:26;13.60;99.90
5344;DHT22;2694;48.954;8.928;2023-06-14T00:33:53;13.60;99.90
5344;DHT22;2694;48.954;8.928;2023-06-14T00:36:20;13.50;99.90
5344;DHT22;2694;48.954;8.928;2023-06-14T00:38:47;13.80;99.90
5344;DHT22;2694;48.954;8.928;2023-06-14T00:41:15;13.90;99.90
5344;DHT22;2694;48.954;8.928;2023-06-14T00:43:43;13.80;99.90
5344;DHT22;2694;48.954;8.928;2023-06-14T00:46:10;13.70;99.90
5344;DHT22;2694;48.954;8.928;2023-06-14T00:48:37;13.50;99.90
5344;DHT22;2694;48.954;8.928;2023-06-14T00:51:05;13.40;99.90
5344;DHT22;2694;48.954;8.928;2023-06-14T00:53:32;13.40;99.90
5344;DHT22;2694;48.954;8.928;2023-06-14T00:56:01;13.30;99.90
5344;DHT22;2694;48.954;8.928;2023-06-14T00:58:28;13.10;99.90
5344;DHT22;2694;48.954;8.928;2023-06-14T01:01:00;12.90;99.90
5344;DHT22;2694;48.954;8.928;2023-06-14T01:03:28;12.90;99.90
5344;DHT22;2694;48.954;8.928;2023-06-14T01:06:01;12.90;99.90
5344;DHT22;2694;48.954;8.928;2023-06-14T01:08:41;12.70;99.90
5344;DHT22;2694;48.954;8.928;2023-06-14T01:11:14;12.70;99.90
5344;DHT22;2694;48.954;8.928;2023-06-14T01:13:47;12.60;99.90
5344;DHT22;2694;48.954;8.928;2023-06-14T01:16:17;12.70;99.90
5344;DHT22;2694;48.954;8.928;2023-06-14T01:18:44;12.60;99.90
5344;DHT22;2694;48.954;8.928;2023-06-14T01:21:20;12.80;99.90
5344;DHT22;2694;48.954;8.928;2023-06-14T01:23:49;12.70;99.90
5344;DHT22;2694;48.954;8.928;2023-06-14T01:26:18;12.60;99.90
5344;DHT22;2694;48.954;8.928;2023-06-14T01:28:46;12.60;99.90
5344;DHT22;2694;48.954;8.928;2023-06-14T01:31:17;12.60;99.90
5344;DHT22;2694;48.954;8.928;2023-06-14T01:33:48;12.60;99.90
5344;DHT22;2694;48.954;8.928;2023-06-14T01:36:17;12.60;99.90
5344;DHT22;2694;48.954;8.928;2023-06-14T01:38:46;12.50;99.90
5344;DHT22;2694;48.954;8.928;2023-06-14T01:41:15;12.50;99.90
5344;DHT22;2694;48.954;8.928;2023-06-14T01:43:43;12.50;99.90
5344;DHT22;2694;48.954;8.928;2023-06-14T01:46:11;12.50;99.90
5344;DHT22;2694;48.954;8.928;2023-06-14T01:48:39;12.50;99.90
5344;DHT22;2694;48.954;8.928;2023-06-14T01:51:06;12.40;99.90
5344;DHT22;2694;48.954;8.928;2023-06-14T01:53:33;12.30;99.90
5344;DHT22;2694;48.954;8.928;2023-06-14T01:56:01;12.20;99.90
5344;DHT22;2694;48.954;8.928;2023-06-14T01:58:30;12.10;99.90
5344;DHT22;2694;48.954;8.928;2023-06-14T02:00:57;12.00;99.90
5344;DHT22;2694;48.954;8.928;2023-06-14T02:03:26;12.00;99.90
5344;DHT22;2694;48.954;8.928;2023-06-14T02:05:53;11.90;99.90
5344;DHT22;2694;48.954;8.928;2023-06-14T02:08:21;11.90;99.90
5344;DHT22;2694;48.954;8.928;2023-06-14T02:10:48;11.80;99.90
5344;DHT22;2694;48.954;8.928;2023-06-14T02:13:15;12.00;99.90
5344;DHT22;2694;48.954;8.928;2023-06-14T02:15:43;12.00;99.90
5344;DHT22;2694;48.954;8.928;2023-06-14T02:18:11;11.90;99.90
5344;DHT22;2694;48.954;8.928;2023-06-14T02:20:38;11.90;99.90
5344;DHT22;2694;48.954;8.928;2023-06-14T02:23:06;11.90;99.90
5344;DHT22;2694;48.954;8.928;2023-06-14T02:25:33;11.90;99.90
5344;DHT22;2694;48.954;8.928;2023-06-14T02:28:00;11.90;99.90
5344;DHT22;2694;48.954;8.928;2023-06-14T02:30:27;12.00;99.90
5344;DHT22;2694;48.954;8.928;2023-06-14T02:32:56;11.80;99.90
5344;DHT22;2694;48.954;8.928;2023-06-14T02:35:24;11.80;99.90
5344;DHT22;2694;48.954;8.928;2023-06-14T02:37:52;11.80;99.90
5344;DHT22;2694;48.954;8.928;2023-06-14T02:40:19;11.70;99.90
5344;DHT22;2694;48.954;8.928;2023-06-14T02:42:46;11.50;99.90
5344;DHT22;2694;48.954;8.928;2023-06-14T02:45:13;11.30;99.90
5344;DHT22;2694;48.954;8.928;2023-06-14T02:47:46;11.30;99.90
5344;DHT22;2694;48.954;8.928;2023-06-14T02:50:15;11.10;99.90
5344;DHT22;2694;48.954;8.928;2023-06-14T02:52:43;11.10;99.90
5344;DHT22;2694;48.954;8.928;2023-06-14T02:55:11;11.00;99.90
5344;DHT22;2694;48.954;8.928;2023-06-14T02:57:38;10.90;99.90
5344;DHT22;2694;48.954;8.928;2023-06-14T03:00:07;10.90;99.90
5344;DHT22;2694;48.954;8.928;2023-06-14T03:02:38;11.00;99.90
5344;DHT22;2694;48.954;8.928;2023-06-14T03:05:06;11.10;99.90
5344;DHT22;2694;48.954;8.928;2023-06-14T03:07:35;11.10;99.90
5344;DHT22;2694;48.954;8.928;2023-06-14T03:10:07;11.10;99.90
5344;DHT22;2694;48.954;8.928;2023-06-14T03:12:35;11.00;99.90
5344;DHT22;2694;48.954;8.928;2023-06-14T03:15:02;11.00;99.90
5344;DHT22;2694;48.954;8.928;2023-06-14T03:17:30;11.10;99.90
5344;DHT22;2694;48.954;8.928;2023-06-14T03:19:59;10.90;99.90
5344;DHT22;2694;48.954;8.928;2023-06-14T03:22:26;10.80;99.90
5344;DHT22;2694;48.954;8.928;2023-06-14T03:24:55;10.80;99.90
5344;DHT22;2694;48.954;8.928;2023-06-14T03:27:22;10.80;99.90
5344;DHT22;2694;48.954;8.928;2023-06-14T03:29:49;10.80;99.90
5344;DHT22;2694;48.954;8.928;2023-06-14T03:32:16;10.80;99.90
5344;DHT22;2694;48.954;8.928;2023-06-14T03:34:43;10.80;99.90
5344;DHT22;2694;48.954;8.928;2023-06-14T03:37:10;10.80;99.90
5344;DHT22;2694;48.954;8.928;2023-06-14T03:39:37;10.80;99.90
5344;DHT22;2694;48.954;8.928;2023-06-14T03:42:13;10.80;99.90
5344;DHT22;2694;48.954;8.928;2023-06-14T03:44:40;10.90;99.90
5344;DHT22;2694;48.954;8.928;2023-06-14T03:47:07;10.90;99.90
5344;DHT22;2694;48.954;8.928;2023-06-14T03:49:35;10.90;99.90
5344;DHT22;2694;48.954;8.928;2023-06-14T03:52:02;11.00;99.90
5344;DHT22;2694;48.954;8.928;2023-06-14T03:54:30;11.00;99.90
5344;DHT22;2694;48.954;8.928;2023-06-14T03:56:58;11.00;99.90
5344;DHT22;2694;48.954;8.928;2023-06-14T03:59:26;11.10;99.90
5344;DHT22;2694;48.954;8.928;2023-06-14T04:01:54;11.10;99.90
5344;DHT22;2694;48.954;8.928;2023-06-14T04:04:21;11.20;99.90
5344;DHT22;2694;48.954;8.928;2023-06-14T04:06:54;11.30;99.90
5344;DHT22;2694;48.954;8.928;2023-06-14T04:09:22;11.30;99.90
5344;DHT22;2694;48.954;8.928;2023-06-14T04:11:50;11.50;99.90
5344;DHT22;2694;48.954;8.928;2023-06-14T04:14:17;11.60;99.90
5344;DHT22;2694;48.954;8.928;2023-06-14T04:16:46;11.70;99.90
5344;DHT22;2694;48.954;8.928;2023-06-14T04:19:13;11.80;99.90
5344;DHT22;2694;48.954;8.928;2023-06-14T04:21:40;11.80;99.90
5344;DHT22;2694;48.954;8.928;2023-06-14T04:24:08;11.80;99.90
5344;DHT22;2694;48.954;8.928;2023-06-14T04:26:38;11.90;99.90
5344;DHT22;2694;48.954;8.928;2023-06-14T04:29:05;12.00;99.90
5344;DHT22;2694;48.954;8.928;2023-06-14T04:31:33;12.20;99.90
5344;DHT22;2694;48.954;8.928;2023-06-14T04:34:04;12.40;99.90
5344;DHT22;2694;48.954;8.928;2023-06-14T04:36:32;12.70;99.90
5344;DHT22;2694;48.954;8.928;2023-06-14T04:39:02;12.80;99.90
5344;DHT22;2694;48.954;8.928;2023-06-14T04:41:30;13.00;99.90
5344;DHT22;2694;48.954;8.928;2023-06-14T04:43:57;13.10;99.90
5344;DHT22;2694;48.954;8.928;2023-06-14T04:46:27;13.20;99.90
5344;DHT22;2694;48.954;8.928;2023-06-14T04:48:54;13.50;99.90
5344;DHT22;2694;48.954;8.928;2023-06-14T04:51:24;13.70;99.90
5344;DHT22;2694;48.954;8.928;2023-06-14T04:53:55;13.80;99.90
5344;DHT22;2694;48.954;8.928;2023-06-14T04:56:26;14.00;99.90
5344;DHT22;2694;48.954;8.928;2023-06-14T04:59:04;14.20;99.90
5344;DHT22;2694;48.954;8.928;2023-06-14T05:01:32;14.30;99.90
5344;DHT22;2694;48.954;8.928;2023-06-14T05:03:59;14.70;99.90
5344;DHT22;2694;48.954;8.928;2023-06-14T05:06:28;14.80;99.90
5344;DHT22;2694;48.954;8.928;2023-06-14T05:08:56;15.00;99.90
5344;DHT22;2694;48.954;8.928;2023-06-14T05:11:23;15.20;99.90
5344;DHT22;2694;48.954;8.928;2023-06-14T05:13:52;15.40;99.90
5344;DHT22;2694;48.954;8.928;2023-06-14T05:16:20;15.60;99.90
5344;DHT22;2694;48.954;8.928;2023-06-14T05:18:50;15.70;99.90
5344;DHT22;2694;48.954;8.928;2023-06-14T05:21:17;16.10;99.90
5344;DHT22;2694;48.954;8.928;2023-06-14T05:23:49;16.10;99.90
5344;DHT22;2694;48.954;8.928;2023-06-14T05:26:16;16.30;99.90
5344;DHT22;2694;48.954;8.928;2023-06-14T05:28:43;16.40;99.90
5344;DHT22;2694;48.954;8.928;2023-06-14T05:31:10;16.50;99.90
5344;DHT22;2694;48.954;8.928;2023-06-14T05:33:37;16.60;99.90
5344;DHT22;2694;48.954;8.928;2023-06-14T05:36:04;16.60;99.90
5344;DHT22;2694;48.954;8.928;2023-06-14T05:38:31;16.70;99.90
5344;DHT22;2694;48.954;8.928;2023-06-14T05:41:00;16.50;99.90
5344;DHT22;2694;48.954;8.928;2023-06-14T05:43:27;16.40;99.90
5344;DHT22;2694;48.954;8.928;2023-06-14T05:45:54;16.50;99.90
5344;DHT22;2694;48.954;8.928;2023-06-14T05:48:22;16.50;99.90
5344;DHT22;2694;48.954;8.928;2023-06-14T05:50:49;16.70;99.90
5344;DHT22;2694;48.954;8.928;2023-06-14T05:53:16;16.80;99.90
5344;DHT22;2694;48.954;8.928;2023-06-14T05:55:44;16.70;99.90
5344;DHT22;2694;48.954;8.928;2023-06-14T05:58:12;16.80;99.90
5344;DHT22;2694;48.954;8.928;2023-06-14T06:00:40;16.90;99.90
5344;DHT22;2694;48.954;8.928;2023-06-14T06:03:07;17.10;99.90
5344;DHT22;2694;48.954;8.928;2023-06-14T06:05:35;17.30;99.90
5344;DHT22;2694;48.954;8.928;2023-06-14T06:08:02;17.50;99.90
5344;DHT22;2694;48.954;8.928;2023-06-14T06:10:29;17.70;99.90
5344;DHT22;2694;48.954;8.928;2023-06-14T06:12:56;18.10;99.90
5344;DHT22;2694;48.954;8.928;2023-06-14T06:15:24;18.40;99.90
5344;DHT22;2694;48.954;8.928;2023-06-14T06:17:51;18.70;98.80
5344;DHT22;2694;48.954;8.928;2023-06-14T06:20:18;19.00;98.30
5344;DHT22;2694;48.954;8.928;2023-06-14T06:22:45;19.10;97.30
5344;DHT22;2694;48.954;8.928;2023-06-14T06:25:12;19.30;97.10
5344;DHT22;2694;48.954;8.928;2023-06-14T06:27:40;19.60;96.90
5344;DHT22;2694;48.954;8.928;2023-06-14T06:30:08;19.70;96.60
5344;DHT22;2694;48.954;8.928;2023-06-14T06:32:36;19.90;95.50
5344;DHT22;2694;48.954;8.928;2023-06-14T06:35:04;19.60;95.40
5344;DHT22;2694;48.954;8.928;2023-06-14T06:37:32;19.50;95.30
5344;DHT22;2694;48.954;8.928;2023-06-14T06:39:59;19.30;95.60
5344;DHT22;2694;48.954;8.928;2023-06-14T06:42:26;19.40;95.60
5344;DHT22;2694;48.954;8.928;2023-06-14T06:44:54;19.30;95.20
5344;DHT22;2694;48.954;8.928;2023-06-14T06:47:20;19.50;95.30
5344;DHT22;2694;48.954;8.928;2023-06-14T06:49:49;19.70;95.00
5344;DHT22;2694;48.954;8.928;2023-06-14T06:52:17;19.80;95.70
5344;DHT22;2694;48.954;8.928;2023-06-14T06:54:44;20.00;94.50
5344;DHT22;2694;48.954;8.928;2023-06-14T06:57:12;20.20;93.60
5344;DHT22;2694;48.954;8.928;2023-06-14T06:59:39;20.20;92.90
5344;DHT22;2694;48.954;8.928;2023-06-14T07:02:06;20.10;93.00
5344;DHT22;2694;48.954;8.928;2023-06-14T07:04:33;20.00;93.70
5344;DHT22;2694;48.954;8.928;2023-06-14T07:07:01;20.20;93.60
5344;DHT22;2694;48.954;8.928;2023-06-14T07:09:28;20.10;93.30
5344;DHT22;2694;48.954;8.928;2023-06-14T07:11:55;20.40;94.00
5344;DHT22;2694;48.954;8.928;2023-06-14T07:14:24;20.60;92.80
5344;DHT22;2694;48.954;8.928;2023-06-14T07:16:51;20.90;93.30
5344;DHT22;2694;48.954;8.928;2023-06-14T07:19:17;21.00;92.70
5344;DHT22;2694;48.954;8.928;2023-06-14T07:21:45;21.10;92.10
5344;DHT22;2694;48.954;8.928;2023-06-14T07:24:13;21.20;92.60
5344;DHT22;2694;48.954;8.928;2023-06-14T07:26:40;21.20;91.50
5344;DHT22;2694;48.954;8.928;2023-06-14T07:29:08;21.00;91.90
5344;DHT22;2694;48.954;8.928;2023-06-14T07:31:35;20.90;91.50
5344;DHT22;2694;48.954;8.928;2023-06-14T07:34:02;21.10;91.80
5344;DHT22;2694;48.954;8.928;2023-06-14T07:36:29;21.20;91.80
5344;DHT22;2694;48.954;8.928;2023-06-14T07:38:56;21.30;91.30
5344;DHT22;2694;48.954;8.928;2023-06-14T07:41:25;21.40;91.30
5344;DHT22;2694;48.954;8.928;2023-06-14T07:43:52;21.30;91.50
5344;DHT22;2694;48.954;8.928;2023-06-14T07:46:19;21.30;91.30
5344;DHT22;2694;48.954;8.928;2023-06-14T07:48:46;21.10;90.90
5344;DHT22;2694;48.954;8.928;2023-06-14T07:51:13;21.30;91.20
5344;DHT22;2694;48.954;8.928;2023-06-14T07:53:40;21.40;90.90
5344;DHT22;2694;48.954;8.928;2023-06-14T07:56:08;21.60;90.30
5344;DHT22;2694;48.954;8.928;2023-06-14T07:58:36;21.80;90.80
5344;DHT22;2694;48.954;8.928;2023-06-14T08:01:03;21.90;90.10
5344;DHT22;2694;48.954;8.928;2023-06-14T08:03:31;21.90;90.10
5344;DHT22;2694;48.954;8.928;2023-06-14T08:05:58;21.70;89.50
5344;DHT22;2694;48.954;8.928;2023-06-14T08:08:26;21.70;89.60
5344;DHT22;2694;48.954;8.928;2023-06-14T08:10:53;21.50;89.50
5344;DHT22;2694;48.954;8.928;2023-06-14T08:13:20;21.50;90.00
5344;DHT22;2694;48.954;8.928;2023-06-14T08:15:49;21.50;90.10
5344;DHT22;2694;48.954;8.928;2023-06-14T08:18:16;21.70;90.10
5344;DHT22;2694;48.954;8.928;2023-06-14T08:20:43;21.90;90.40
5344;DHT22;2694;48.954;8.928;2023-06-14T08:23:10;22.10;90.00
5344;DHT22;2694;48.954;8.928;2023-06-14T08:25:37;22.30;89.90
5344;DHT22;2694;48.954;8.928;2023-06-14T08:28:04;22.20;89.70
5344;DHT22;2694;48.954;8.928;2023-06-14T08:30:31;22.20;88.90
5344;DHT22;2694;48.954;8.928;2023-06-14T08:33:00;22.30;88.30
5344;DHT22;2694;48.954;8.928;2023-06-14T08:35:27;22.50;88.40
5344;DHT22;2694;48.954;8.928;2023-06-14T08:37:54;22.50;88.50
5344;DHT22;2694;48.954;8.928;2023-06-14T08:40:22;22.70;88.10
5344;DHT22;2694;48.954;8.928;2023-06-14T08:42:52;22.70;87.40
5344;DHT22;2694;48.954;8.928;2023-06-14T08:45:19;22.40;87.80
5344;DHT22;2694;48.954;8.928;2023-06-14T08:47:47;22.30;87.50
5344;DHT22;2694;48.954;8.928;2023-06-14T08:50:20;22.20;87.20
5344;DHT22;2694;48.954;8.928;2023-06-14T08:52:53;22.40;87.70
5344;DHT22;2694;48.954;8.928;2023-06-14T08:55:23;22.60;86.10
5344;DHT22;2694;48.954;8.928;2023-06-14T08:57:51;22.60;86.20
5344;DHT22;2694;48.954;8.928;2023-06-14T09:00:20;22.70;84.90
5344;DHT22;2694;48.954;8.928;2023-06-14T09:02:47;22.70;84.80
5344;DHT22;2694;48.954;8.928;2023-06-14T09:05:14;22.80;84.20
5344;DHT22;2694;48.954;8.928;2023-06-14T09:07:45;22.80;84.60
5344;DHT22;2694;48.954;8.928;2023-06-14T09:10:15;22.90;84.20
5344;DHT22;2694;48.954;8.928;2023-06-14T09:12:43;23.00;83.90
5344;DHT22;2694;48.954;8.928;2023-06-14T09:15:10;23.30;82.60
5344;DHT22;2694;48.954;8.928;2023-06-14T09:17:38;23.30;81.10
5344;DHT22;2694;48.954;8.928;2023-06-14T09:20:07;23.10;82.50
5344;DHT22;2694;48.954;8.928;2023-06-14T09:22:36;23.20;82.40
5344;DHT22;2694;48.954;8.928;2023-06-14T09:25:06;23.20;79.70
5344;DHT22;2694;48.954;8.928;2023-06-14T09:27:33;23.20;80.50
5344;DHT22;2694;48.954;8.928;2023-06-14T09:30:01;23.50;81.40
5344;DHT22;2694;48.954;8.928;2023-06-14T09:32:29;23.60;79.00
5344;DHT22;2694;48.954;8.928;2023-06-14T09:34:56;23.40;78.80
5344;DHT22;2694;48.954;8.928;2023-06-14T09:37:27;23.50;77.20
5344;DHT22;2694;48.954;8.928;2023-06-14T09:39:55;23.20;79.00
5344;DHT22;2694;48.954;8.928;2023-06-14T09:42:24;23.40;79.20
5344;DHT22;2694;48.954;8.928;2023-06-14T09:44:54;23.50;77.30
5344;DHT22;2694;48.954;8.928;2023-06-14T09:47:23;23.60;76.10
5344;DHT22;2694;48.954;8.928;2023-06-14T09:49:51;23.80;76.10
5344;DHT22;2694;48.954;8.928;2023-06-14T09:52:21;23.80;76.00
5344;DHT22;2694;48.954;8.928;2023-06-14T09:54:48;23.90;74.00
5344;DHT22;2694;48.954;8.928;2023-06-14T09:57:16;24.20;74.10
5344;DHT22;2694;48.954;8.928;2023-06-14T09:59:46;24.40;76.00
5344;DHT22;2694;48.954;8.928;2023-06-14T10:02:18;24.30;75.50
5344;DHT22;2694;48.954;8.928;2023-06-14T10:05:04;24.20;75.20
5344;DHT22;2694;48.954;8.928;2023-06-14T10:07:35;24.40;71.40
5344;DHT22;2694;48.954;8.928;2023-06-14T10:10:06;24.70;72.60
5344;DHT22;2694;48.954;8.928;2023-06-14T10:12:33;24.70;71.50
5344;DHT22;2694;48.954;8.928;2023-06-14T10:15:02;24.80;67.00
5344;DHT22;2694;48.954;8.928;2023-06-14T10:17:35;24.90;67.80
5344;DHT22;2694;48.954;8.928;2023-06-14T10:20:21;24.80;67.40
5344;DHT22;2694;48.954;8.928;2023-06-14T10:22:58;24.70;68.90
5344;DHT22;2694;48.954;8.928;2023-06-14T10:25:27;24.80;66.90
5344;DHT22;2694;48.954;8.928;2023-06-14T10:28:03;24.60;67.80
5344;DHT22;2694;48.954;8.928;2023-06-14T10:30:32;24.40;68.50
5344;DHT22;2694;48.954;8.928;2023-06-14T10:33:05;24.10;69.30
5344;DHT22;2694;48.954;8.928;2023-06-14T10:35:33;24.40;68.40
5344;DHT22;2694;48.954;8.928;2023-06-14T10:38:07;24.50;67.30
5344;DHT22;2694;48.954;8.928;2023-06-14T10:40:34;24.30;68.60
5344;DHT22;2694;48.954;8.928;2023-06-14T10:43:21;24.50;66.70
5344;DHT22;2694;48.954;8.928;2023-06-14T10:46:26;24.70;66.40
5344;DHT22;2694;48.954;8.928;2023-06-14T10:48:57;24.90;65.80
5344;DHT22;2694;48.954;8.928;2023-06-14T10:51:24;25.10;67.20
5344;DHT22;2694;48.954;8.928;2023-06-14T10:53:52;25.30;63.60
5344;DHT22;2694;48.954;8.928;2023-06-14T10:56:27;25.10;63.70
5344;DHT22;2694;48.954;8.928;2023-06-14T10:58:56;24.70;64.40
5344;DHT22;2694;48.954;8.928;2023-06-14T11:01:33;24.60;64.90
5344;DHT22;2694;48.954;8.928;2023-06-14T11:04:09;24.50;65.00
5344;DHT22;2694;48.954;8.928;2023-06-14T11:06:47;24.50;66.30
5344;DHT22;2694;48.954;8.928;2023-06-14T11:09:50;24.50;65.60
5344;DHT22;2694;48.954;8.928;2023-06-14T11:12:20;24.50;66.30
5344;DHT22;2694;48.954;8.928;2023-06-14T11:14:49;24.50;65.60
5344;DHT22;2694;48.954;8.928;2023-06-14T11:17:17;24.70;66.30
5344;DHT22;2694;48.954;8.928;2023-06-14T11:19:44;24.90;65.00
5344;DHT22;2694;48.954;8.928;2023-06-14T11:22:12;25.20;64.40
5344;DHT22;2694;48.954;8.928;2023-06-14T11:24:40;25.40;63.50
5344;DHT22;2694;48.954;8.928;2023-06-14T11:27:07;25.70;62.50
5344;DHT22;2694;48.954;8.928;2023-06-14T11:29:34;25.30;61.90
5344;DHT22;2694;48.954;8.928;2023-06-14T11:32:01;25.00;61.50
5344;DHT22;2694;48.954;8.928;2023-06-14T11:34:29;24.40;62.90
5344;DHT22;2694;48.954;8.928;2023-06-14T11:36:56;24.10;64.20
5344;DHT22;2694;48.954;8.928;2023-06-14T11:39:24;24.00;65.30
5344;DHT22;2694;48.954;8.928;2023-06-14T11:41:52;24.00;65.60
5344;DHT22;2694;48.954;8.928;2023-06-14T11:44:20;24.00;64.00
5344;DHT22;2694;48.954;8.928;2023-06-14T11:46:48;24.40;66.10
5344;DHT22;2694;48.954;8.928;2023-06-14T11:49:16;25.00;64.30
5344;DHT22;2694;48.954;8.928;2023-06-14T11:51:44;25.20;63.70
5344;DHT22;2694;48.954;8.928;2023-06-14T11:54:12;25.10;64.20
5344;DHT22;2694;48.954;8.928;2023-06-14T11:56:39;24.60;63.30
5344;DHT22;2694;48.954;8.928;2023-06-14T11:59:06;24.10;63.50
5344;DHT22;2694;48.954;8.928;2023-06-14T12:01:36;24.10;64.00
5344;DHT22;2694;48.954;8.928;2023-06-14T12:04:05;24.30;65.40
5344;DHT22;2694;48.954;8.928;2023-06-14T12:06:32;23.70;64.30
5344;DHT22;2694;48.954;8.928;2023-06-14T12:09:05;24.80;64.00
5344;DHT22;2694;48.954;8.928;2023-06-14T12:11:38;24.80;63.20
5344;DHT22;2694;48.954;8.928;2023-06-14T12:14:05;24.70;64.10
5344;DHT22;2694;48.954;8.928;2023-06-14T12:16:34;24.80;63.20
5344;DHT22;2694;48.954;8.928;2023-06-14T12:19:08;24.80;61.80
5344;DHT22;2694;48.954;8.928;2023-06-14T12:21:37;24.90;60.70
5344;DHT22;2694;48.954;8.928;2023-06-14T12:24:07;25.00;62.20
5344;DHT22;2694;48.954;8.928;2023-06-14T12:26:38;25.10;61.30
5344;DHT22;2694;48.954;8.928;2023-06-14T12:29:06;25.00;61.00
5344;DHT22;2694;48.954;8.928;2023-06-14T12:31:34;24.90;60.70
5344;DHT22;2694;48.954;8.928;2023-06-14T12:34:01;24.60;60.40
5344;DHT22;2694;48.954;8.928;2023-06-14T12:36:28;24.30;60.00
5344;DHT22;2694;48.954;8.928;2023-06-14T12:38:55;24.20;61.70
5344;DHT22;2694;48.954;8.928;2023-06-14T12:41:23;24.50;62.10
5344;DHT22;2694;48.954;8.928;2023-06-14T12:43:52;24.80;62.30
5344;DHT22;2694;48.954;8.928;2023-06-14T12:46:19;25.10;60.80
5344;DHT22;2694;48.954;8.928;2023-06-14T12:48:46;25.30;59.70
5344;DHT22;2694;48.954;8.928;2023-06-14T12:51:13;25.00;60.60
5344;DHT22;2694;48.954;8.928;2023-06-14T12:53:40;24.80;60.40
5344;DHT22;2694;48.954;8.928;2023-06-14T12:56:07;24.50;61.50
5344;DHT22;2694;48.954;8.928;2023-06-14T12:58:36;24.30;62.60
5344;DHT22;2694;48.954;8.928;2023-06-14T13:01:04;24.20;63.30
5344;DHT22;2694;48.954;8.928;2023-06-14T13:03:31;24.10;62.50
5344;DHT22;2694;48.954;8.928;2023-06-14T13:05:59;24.10;63.00
5344;DHT22;2694;48.954;8.928;2023-06-14T13:08:26;24.40;62.90
5344;DHT22;2694;48.954;8.928;2023-06-14T13:10:53;24.70;62.20
5344;DHT22;2694;48.954;8.928;2023-06-14T13:13:20;25.00;62.40
5344;DHT22;2694;48.954;8.928;2023-06-14T13:15:49;25.20;61.20
5344;DHT22;2694;48.954;8.928;2023-06-14T13:18:16;25.30;62.00
5344;DHT22;2694;48.954;8.928;2023-06-14T13:20:43;25.10;59.40
5344;DHT22;2694;48.954;8.928;2023-06-14T13:23:10;24.80;60.30
5344;DHT22;2694;48.954;8.928;2023-06-14T13:25:37;24.60;61.50
5344;DHT22;2694;48.954;8.928;2023-06-14T13:28:04;24.40;62.00
5344;DHT22;2694;48.954;8.928;2023-06-14T13:30:32;24.40;60.60
5344;DHT22;2694;48.954;8.928;2023-06-14T13:33:04;24.50;61.60
5344;DHT22;2694;48.954;8.928;2023-06-14T13:35:31;24.80;61.40
5344;DHT22;2694;48.954;8.928;2023-06-14T13:37:58;24.80;60.60
5344;DHT22;2694;48.954;8.928;2023-06-14T13:40:25;24.80;60.80
5344;DHT22;2694;48.954;8.928;2023-06-14T13:42:52;25.10;60.90
5344;DHT22;2694;48.954;8.928;2023-06-14T13:45:19;25.30;59.40
5344;DHT22;2694;48.954;8.928;2023-06-14T13:47:46;25.60;59.60
5344;DHT22;2694;48.954;8.928;2023-06-14T13:50:15;26.00;58.20
5344;DHT22;2694;48.954;8.928;2023-06-14T13:52:43;26.20;57.30
5344;DHT22;2694;48.954;8.928;2023-06-14T13:55:10;26.00;57.00
5344;DHT22;2694;48.954;8.928;2023-06-14T13:57:37;25.60;57.70
5344;DHT22;2694;48.954;8.928;2023-06-14T14:00:05;25.40;58.00
5344;DHT22;2694;48.954;8.928;2023-06-14T14:02:34;25.10;58.90
5344;DHT22;2694;48.954;8.928;2023-06-14T14:05:01;24.90;60.00
5344;DHT22;2694;48.954;8.928;2023-06-14T14:07:29;24.60;59.90
5344;DHT22;2694;48.954;8.928;2023-06-14T14:09:56;24.50;60.50
5344;DHT22;2694;48.954;8.928;2023-06-14T14:12:23;24.50;60.80
5344;DHT22;2694;48.954;8.928;2023-06-14T14:14:50;24.40;59.90
5344;DHT22;2694;48.954;8.928;2023-06-14T14:17:18;24.50;59.10
5344;DHT22;2694;48.954;8.928;2023-06-14T14:19:44;24.70;59.90
5344;DHT22;2694;48.954;8.928;2023-06-14T14:22:11;25.00;59.60
5344;DHT22;2694;48.954;8.928;2023-06-14T14:24:40;25.50;57.90
5344;DHT22;2694;48.954;8.928;2023-06-14T14:27:07;25.70;57.80
5344;DHT22;2694;48.954;8.928;2023-06-14T14:29:34;26.00;57.90
5344;DHT22;2694;48.954;8.928;2023-06-14T14:32:01;26.00;58.50
5344;DHT22;2694;48.954;8.928;2023-06-14T14:34:28;26.10;58.60
5344;DHT22;2694;48.954;8.928;2023-06-14T14:36:55;26.20;58.20
5344;DHT22;2694;48.954;8.928;2023-06-14T14:39:22;26.10;58.10
5344;DHT22;2694;48.954;8.928;2023-06-14T14:41:50;25.90;58.10
5344;DHT22;2694;48.954;8.928;2023-06-14T14:44:17;25.90;58.80
5344;DHT22;2694;48.954;8.928;2023-06-14T14:46:44;25.90;58.90
5344;DHT22;2694;48.954;8.928;2023-06-14T14:49:11;26.00;60.20
5344;DHT22;2694;48.954;8.928;2023-06-14T14:51:38;25.80;60.10
5344;DHT22;2694;48.954;8.928;2023-06-14T14:54:05;25.90;60.50
5344;DHT22;2694;48.954;8.928;2023-06-14T14:56:32;25.70;59.40
5344;DHT22;2694;48.954;8.928;2023-06-14T14:59:02;25.60;60.30
5344;DHT22;2694;48.954;8.928;2023-06-14T15:01:29;25.50;59.80
5344;DHT22;2694;48.954;8.928;2023-06-14T15:03:56;25.30;59.60
5344;DHT22;2694;48.954;8.928;2023-06-14T15:06:23;25.10;60.40
5344;DHT22;2694;48.954;8.928;2023-06-14T15:08:51;25.00;60.70
5344;DHT22;2694;48.954;8.928;2023-06-14T15:11:18;24.60;60.40
5344;DHT22;2694;48.954;8.928;2023-06-14T15:13:46;24.60;61.70
5344;DHT22;2694;48.954;8.928;2023-06-14T15:16:15;24.50;61.00
5344;DHT22;2694;48.954;8.928;2023-06-14T15:18:42;24.40;61.30
5344;DHT22;2694;48.954;8.928;2023-06-14T15:21:09;24.40;60.70
5344;DHT22;2694;48.954;8.928;2023-06-14T15:23:36;24.70;59.90
5344;DHT22;2694;48.954;8.928;2023-06-14T15:26:03;25.00;59.20
5344;DHT22;2694;48.954;8.928;2023-06-14T15:28:30;25.00;59.40
5344;DHT22;2694;48.954;8.928;2023-06-14T15:30:58;25.30;59.00
5344;DHT22;2694;48.954;8.928;2023-06-14T15:33:26;25.50;60.00
5344;DHT22;2694;48.954;8.928;2023-06-14T15:35:53;25.30;60.30
5344;DHT22;2694;48.954;8.928;2023-06-14T15:38:20;25.00;60.30
5344;DHT22;2694;48.954;8.928;2023-06-14T15:40:47;24.80;61.30
5344;DHT22;2694;48.954;8.928;2023-06-14T15:43:14;24.90;62.30
5344;DHT22;2694;48.954;8.928;2023-06-14T15:45:41;24.90;62.00
5344;DHT22;2694;48.954;8.928;2023-06-14T15:48:09;24.80;61.60
5344;DHT22;2694;48.954;8.928;2023-06-14T15:50:38;24.50;60.50
5344;DHT22;2694;48.954;8.928;2023-06-14T15:53:04;24.30;61.60
5344;DHT22;2694;48.954;8.928;2023-06-14T15:55:31;24.20;62.20
5344;DHT22;2694;48.954;8.928;2023-06-14T15:57:58;24.10;63.00
5344;DHT22;2694;48.954;8.928;2023-06-14T16:00:25;24.10;64.00
5344;DHT22;2694;48.954;8.928;2023-06-14T16:02:52;24.00;63.40
5344;DHT22;2694;48.954;8.928;2023-06-14T16:05:19;24.10;63.00
5344;DHT22;2694;48.954;8.928;2023-06-14T16:07:47;24.20;64.20
5344;DHT22;2694;48.954;8.928;2023-06-14T16:10:14;24.40;63.20